sensor_id;sensor_type;location;lat;lon;timestamp;P1;durP1;ratioP1;P2;durP2;ratioP2
85175;SDS011;75548;42.444;27.488;2024-02-15T00:01:15;5.57;;;2.20;;
85175;SDS011;75548;42.444;27.488;2024-02-15T00:04:40;5.32;;;3.03;;
85175;SDS011;75548;42.444;27.488;2024-02-15T00:08:06;5.13;;;2.72;;
85175;SDS011;75548;42.444;27.488;2024-02-15T00:11:31;3.55;;;2.35;;
85175;SDS011;75548;42.444;27.488;2024-02-15T00:14:56;4.28;;;3.17;;
85175;SDS011;75548;42.444;27.488;2024-02-15T00:18:22;4.97;;;3.30;;
85175;SDS011;75548;42.444;27.488;2024-02-15T00:21:47;5.18;;;3.03;;
85175;SDS011;75548;42.444;27.488;2024-02-15T00:25:13;3.58;;;2.63;;
85175;SDS011;75548;42.444;27.488;2024-02-15T00:28:38;4.28;;;3.10;;
85175;SDS011;75548;42.444;27.488;2024-02-15T00:32:04;5.43;;;3.47;;
85175;SDS011;75548;42.444;27.488;2024-02-15T00:35:29;5.70;;;3.63;;
85175;SDS011;75548;42.444;27.488;2024-02-15T00:38:54;6.95;;;5.35;;
85175;SDS011;75548;42.444;27.488;2024-02-15T00:42:20;10.82;;;7.47;;
85175;SDS011;75548;42.444;27.488;2024-02-15T00:45:45;8.63;;;5.38;;
85175;SDS011;75548;42.444;27.488;2024-02-15T00:49:10;5.70;;;2.92;;
85175;SDS011;75548;42.444;27.488;2024-02-15T00:52:36;4.43;;;3.03;;
85175;SDS011;75548;42.444;27.488;2024-02-15T00:56:01;3.78;;;2.47;;
85175;SDS011;75548;42.444;27.488;2024-02-15T00:59:27;4.85;;;2.50;;
85175;SDS011;75548;42.444;27.488;2024-02-15T01:02:52;4.55;;;2.72;;
85175;SDS011;75548;42.444;27.488;2024-02-15T01:06:17;5.13;;;2.65;;
85175;SDS011;75548;42.444;27.488;2024-02-15T01:09:43;4.05;;;2.28;;
85175;SDS011;75548;42.444;27.488;2024-02-15T01:13:08;3.53;;;2.42;;
85175;SDS011;75548;42.444;27.488;2024-02-15T01:16:34;3.70;;;2.70;;
85175;SDS011;75548;42.444;27.488;2024-02-15T01:19:59;3.78;;;2.80;;
85175;SDS011;75548;42.444;27.488;2024-02-15T01:23:24;2.90;;;1.85;;
85175;SDS011;75548;42.444;27.488;2024-02-15T01:26:50;3.13;;;2.03;;
85175;SDS011;75548;42.444;27.488;2024-02-15T01:30:15;4.65;;;3.45;;
85175;SDS011;75548;42.444;27.488;2024-02-15T01:33:41;4.63;;;3.28;;
85175;SDS011;75548;42.444;27.488;2024-02-15T01:37:06;4.65;;;3.00;;
85175;SDS011;75548;42.444;27.488;2024-02-15T01:40:31;5.95;;;3.30;;
85175;SDS011;75548;42.444;27.488;2024-02-15T01:43:57;4.00;;;2.72;;
85175;SDS011;75548;42.444;27.488;2024-02-15T01:47:22;5.32;;;2.03;;
85175;SDS011;75548;42.444;27.488;2024-02-15T01:50:48;4.07;;;2.85;;
85175;SDS011;75548;42.444;27.488;2024-02-15T01:54:13;3.72;;;2.80;;
85175;SDS011;75548;42.444;27.488;2024-02-15T01:57:38;3.65;;;2.47;;
85175;SDS011;75548;42.444;27.488;2024-02-15T02:01:04;6.05;;;2.90;;
85175;SDS011;75548;42.444;27.488;2024-02-15T02:04:29;4.35;;;2.28;;
85175;SDS011;75548;42.444;27.488;2024-02-15T02:07:55;5.95;;;4.40;;
85175;SDS011;75548;42.444;27.488;2024-02-15T02:11:20;5.68;;;3.78;;
85175;SDS011;75548;42.444;27.488;2024-02-15T02:14:45;5.43;;;3.55;;
85175;SDS011;75548;42.444;27.488;2024-02-15T02:18:11;3.35;;;2.58;;
85175;SDS011;75548;42.444;27.488;2024-02-15T02:21:36;5.43;;;3.15;;
85175;SDS011;75548;42.444;27.488;2024-02-15T02:25:05;4.30;;;2.67;;
85175;SDS011;75548;42.444;27.488;2024-02-15T02:28:30;4.85;;;3.33;;
85175;SDS011;75548;42.444;27.488;2024-02-15T02:31:56;4.78;;;3.33;;
85175;SDS011;75548;42.444;27.488;2024-02-15T02:35:21;5.57;;;3.20;;
85175;SDS011;75548;42.444;27.488;2024-02-15T02:38:46;5.32;;;3.35;;
85175;SDS011;75548;42.444;27.488;2024-02-15T02:42:12;4.22;;;2.70;;
85175;SDS011;75548;42.444;27.488;2024-02-15T02:45:37;4.35;;;2.50;;
85175;SDS011;75548;42.444;27.488;2024-02-15T02:49:02;5.45;;;3.58;;
85175;SDS011;75548;42.444;27.488;2024-02-15T02:52:28;5.35;;;4.00;;
85175;SDS011;75548;42.444;27.488;2024-02-15T02:55:54;7.43;;;4.43;;
85175;SDS011;75548;42.444;27.488;2024-02-15T02:59:19;7.85;;;4.90;;
85175;SDS011;75548;42.444;27.488;2024-02-15T03:02:46;5.07;;;3.60;;
85175;SDS011;75548;42.444;27.488;2024-02-15T03:06:12;6.53;;;3.13;;
85175;SDS011;75548;42.444;27.488;2024-02-15T03:09:37;5.25;;;3.13;;
85175;SDS011;75548;42.444;27.488;2024-02-15T03:13:03;4.03;;;2.78;;
85175;SDS011;75548;42.444;27.488;2024-02-15T03:16:28;4.88;;;2.95;;
85175;SDS011;75548;42.444;27.488;2024-02-15T03:18:54;4.40;;;2.90;;
85175;SDS011;75548;42.444;27.488;2024-02-15T03:22:19;6.07;;;3.67;;
85175;SDS011;75548;42.444;27.488;2024-02-15T03:25:45;4.75;;;3.40;;
85175;SDS011;75548;42.444;27.488;2024-02-15T03:29:10;3.90;;;3.28;;
85175;SDS011;75548;42.444;27.488;2024-02-15T03:32:36;3.58;;;2.55;;
85175;SDS011;75548;42.444;27.488;2024-02-15T03:36:01;7.72;;;4.90;;
85175;SDS011;75548;42.444;27.488;2024-02-15T03:39:26;5.70;;;3.72;;
85175;SDS011;75548;42.444;27.488;2024-02-15T03:42:54;5.45;;;3.55;;
85175;SDS011;75548;42.444;27.488;2024-02-15T03:46:17;6.30;;;4.07;;
85175;SDS011;75548;42.444;27.488;2024-02-15T03:49:42;3.75;;;2.83;;
85175;SDS011;75548;42.444;27.488;2024-02-15T03:53:09;4.93;;;2.45;;
85175;SDS011;75548;42.444;27.488;2024-02-15T03:56:33;3.38;;;2.85;;
85175;SDS011;75548;42.444;27.488;2024-02-15T03:59:59;7.05;;;3.08;;
85175;SDS011;75548;42.444;27.488;2024-02-15T04:03:24;9.05;;;5.22;;
85175;SDS011;75548;42.444;27.488;2024-02-15T04:06:50;6.75;;;3.38;;
85175;SDS011;75548;42.444;27.488;2024-02-15T04:10:15;6.53;;;3.70;;
85175;SDS011;75548;42.444;27.488;2024-02-15T04:13:40;5.22;;;4.07;;
85175;SDS011;75548;42.444;27.488;2024-02-15T04:17:06;9.20;;;4.00;;
85175;SDS011;75548;42.444;27.488;2024-02-15T04:20:31;5.38;;;3.15;;
85175;SDS011;75548;42.444;27.488;2024-02-15T04:23:56;4.18;;;3.08;;
85175;SDS011;75548;42.444;27.488;2024-02-15T04:27:24;4.63;;;2.90;;
85175;SDS011;75548;42.444;27.488;2024-02-15T04:30:50;5.20;;;3.85;;
85175;SDS011;75548;42.444;27.488;2024-02-15T04:34:16;4.95;;;3.25;;
85175;SDS011;75548;42.444;27.488;2024-02-15T04:37:41;5.00;;;3.53;;
85175;SDS011;75548;42.444;27.488;2024-02-15T04:41:03;5.38;;;2.80;;
85175;SDS011;75548;42.444;27.488;2024-02-15T04:44:28;4.32;;;3.00;;
85175;SDS011;75548;42.444;27.488;2024-02-15T04:47:54;5.47;;;3.67;;
85175;SDS011;75548;42.444;27.488;2024-02-15T04:51:19;6.65;;;3.00;;
85175;SDS011;75548;42.444;27.488;2024-02-15T04:53:46;5.82;;;3.33;;
85175;SDS011;75548;42.444;27.488;2024-02-15T04:56:13;5.05;;;2.80;;
85175;SDS011;75548;42.444;27.488;2024-02-15T04:58:39;5.13;;;3.40;;
85175;SDS011;75548;42.444;27.488;2024-02-15T05:01:16;5.47;;;3.28;;
85175;SDS011;75548;42.444;27.488;2024-02-15T05:03:45;6.15;;;3.70;;
85175;SDS011;75548;42.444;27.488;2024-02-15T05:07:10;5.93;;;3.35;;
85175;SDS011;75548;42.444;27.488;2024-02-15T05:10:36;6.03;;;3.60;;
85175;SDS011;75548;42.444;27.488;2024-02-15T05:14:04;5.10;;;3.38;;
85175;SDS011;75548;42.444;27.488;2024-02-15T05:17:29;5.90;;;3.85;;
85175;SDS011;75548;42.444;27.488;2024-02-15T05:20:55;6.20;;;4.00;;
85175;SDS011;75548;42.444;27.488;2024-02-15T05:24:20;3.88;;;2.85;;
85175;SDS011;75548;42.444;27.488;2024-02-15T05:27:46;4.72;;;2.88;;
85175;SDS011;75548;42.444;27.488;2024-02-15T05:31:14;6.10;;;2.85;;
85175;SDS011;75548;42.444;27.488;2024-02-15T05:34:36;4.15;;;3.13;;
85175;SDS011;75548;42.444;27.488;2024-02-15T05:38:02;6.22;;;4.25;;
85175;SDS011;75548;42.444;27.488;2024-02-15T05:41:27;6.68;;;4.00;;
85175;SDS011;75548;42.444;27.488;2024-02-15T05:44:53;7.80;;;4.63;;
85175;SDS011;75548;42.444;27.488;2024-02-15T05:48:21;9.05;;;4.43;;
85175;SDS011;75548;42.444;27.488;2024-02-15T05:51:46;8.90;;;5.90;;
85175;SDS011;75548;42.444;27.488;2024-02-15T05:55:12;7.28;;;3.92;;
85175;SDS011;75548;42.444;27.488;2024-02-15T05:58:37;4.93;;;3.38;;
85175;SDS011;75548;42.444;27.488;2024-02-15T06:02:03;8.13;;;4.07;;
85175;SDS011;75548;42.444;27.488;2024-02-15T06:05:28;9.80;;;4.90;;
85175;SDS011;75548;42.444;27.488;2024-02-15T06:08:53;8.00;;;5.50;;
85175;SDS011;75548;42.444;27.488;2024-02-15T06:12:19;7.32;;;4.82;;
85175;SDS011;75548;42.444;27.488;2024-02-15T06:15:44;5.45;;;3.60;;
85175;SDS011;75548;42.444;27.488;2024-02-15T06:19:10;14.02;;;7.13;;
85175;SDS011;75548;42.444;27.488;2024-02-15T06:21:35;14.13;;;8.63;;
85175;SDS011;75548;42.444;27.488;2024-02-15T06:24:01;9.18;;;5.95;;
85175;SDS011;75548;42.444;27.488;2024-02-15T06:27:26;13.63;;;8.30;;
85175;SDS011;75548;42.444;27.488;2024-02-15T06:30:52;17.50;;;8.80;;
85175;SDS011;75548;42.444;27.488;2024-02-15T06:34:15;9.82;;;6.03;;
85175;SDS011;75548;42.444;27.488;2024-02-15T06:37:39;8.05;;;5.70;;
85175;SDS011;75548;42.444;27.488;2024-02-15T06:41:03;6.85;;;4.50;;
85175;SDS011;75548;42.444;27.488;2024-02-15T06:44:29;6.50;;;4.40;;
85175;SDS011;75548;42.444;27.488;2024-02-15T06:47:54;4.80;;;3.33;;
85175;SDS011;75548;42.444;27.488;2024-02-15T06:51:19;8.95;;;5.35;;
85175;SDS011;75548;42.444;27.488;2024-02-15T06:54:45;11.70;;;6.22;;
85175;SDS011;75548;42.444;27.488;2024-02-15T06:58:10;13.38;;;7.57;;
85175;SDS011;75548;42.444;27.488;2024-02-15T07:01:36;12.68;;;7.00;;
85175;SDS011;75548;42.444;27.488;2024-02-15T07:05:01;8.38;;;5.80;;
85175;SDS011;75548;42.444;27.488;2024-02-15T07:08:27;7.70;;;5.90;;
85175;SDS011;75548;42.444;27.488;2024-02-15T07:11:52;8.40;;;5.45;;
85175;SDS011;75548;42.444;27.488;2024-02-15T07:15:17;6.85;;;5.05;;
85175;SDS011;75548;42.444;27.488;2024-02-15T07:18:43;7.28;;;5.07;;
85175;SDS011;75548;42.444;27.488;2024-02-15T07:22:08;12.25;;;4.88;;
85175;SDS011;75548;42.444;27.488;2024-02-15T07:25:34;7.43;;;4.45;;
85175;SDS011;75548;42.444;27.488;2024-02-15T07:28:59;8.18;;;3.92;;
85175;SDS011;75548;42.444;27.488;2024-02-15T07:32:24;8.20;;;5.22;;
85175;SDS011;75548;42.444;27.488;2024-02-15T07:35:50;5.10;;;3.40;;
85175;SDS011;75548;42.444;27.488;2024-02-15T07:39:15;6.18;;;3.58;;
85175;SDS011;75548;42.444;27.488;2024-02-15T07:42:40;7.82;;;6.05;;
85175;SDS011;75548;42.444;27.488;2024-02-15T07:46:06;9.88;;;5.45;;
85175;SDS011;75548;42.444;27.488;2024-02-15T07:49:31;9.70;;;5.72;;
85175;SDS011;75548;42.444;27.488;2024-02-15T07:52:57;9.13;;;4.68;;
85175;SDS011;75548;42.444;27.488;2024-02-15T07:56:22;6.72;;;4.05;;
85175;SDS011;75548;42.444;27.488;2024-02-15T07:59:48;7.72;;;4.18;;
85175;SDS011;75548;42.444;27.488;2024-02-15T08:03:13;5.25;;;3.03;;
85175;SDS011;75548;42.444;27.488;2024-02-15T08:06:38;8.07;;;4.20;;
85175;SDS011;75548;42.444;27.488;2024-02-15T08:10:04;6.10;;;4.22;;
85175;SDS011;75548;42.444;27.488;2024-02-15T08:13:29;7.90;;;4.22;;
85175;SDS011;75548;42.444;27.488;2024-02-15T08:16:54;7.57;;;5.05;;
85175;SDS011;75548;42.444;27.488;2024-02-15T08:20:20;9.00;;;3.97;;
85175;SDS011;75548;42.444;27.488;2024-02-15T08:23:45;9.05;;;5.65;;
85175;SDS011;75548;42.444;27.488;2024-02-15T08:27:11;5.45;;;3.60;;
85175;SDS011;75548;42.444;27.488;2024-02-15T08:30:36;5.63;;;4.25;;
85175;SDS011;75548;42.444;27.488;2024-02-15T08:34:02;7.32;;;4.20;;
85175;SDS011;75548;42.444;27.488;2024-02-15T08:37:27;7.63;;;4.53;;
85175;SDS011;75548;42.444;27.488;2024-02-15T08:40:52;9.25;;;5.38;;
85175;SDS011;75548;42.444;27.488;2024-02-15T08:44:18;7.40;;;4.72;;
85175;SDS011;75548;42.444;27.488;2024-02-15T08:47:43;5.57;;;3.97;;
85175;SDS011;75548;42.444;27.488;2024-02-15T08:51:09;10.43;;;3.97;;
85175;SDS011;75548;42.444;27.488;2024-02-15T08:54:34;6.88;;;3.92;;
85175;SDS011;75548;42.444;27.488;2024-02-15T08:57:59;7.95;;;3.90;;
85175;SDS011;75548;42.444;27.488;2024-02-15T09:01:25;6.32;;;4.05;;
85175;SDS011;75548;42.444;27.488;2024-02-15T09:04:50;8.00;;;4.45;;
85175;SDS011;75548;42.444;27.488;2024-02-15T09:08:15;6.38;;;3.92;;
85175;SDS011;75548;42.444;27.488;2024-02-15T09:11:41;5.53;;;3.85;;
85175;SDS011;75548;42.444;27.488;2024-02-15T09:15:07;9.15;;;4.40;;
85175;SDS011;75548;42.444;27.488;2024-02-15T09:18:32;8.90;;;4.47;;
85175;SDS011;75548;42.444;27.488;2024-02-15T09:21:57;6.53;;;4.57;;
85175;SDS011;75548;42.444;27.488;2024-02-15T09:25:23;9.65;;;5.28;;
85175;SDS011;75548;42.444;27.488;2024-02-15T09:28:48;7.90;;;4.90;;
85175;SDS011;75548;42.444;27.488;2024-02-15T09:32:13;8.35;;;4.85;;
85175;SDS011;75548;42.444;27.488;2024-02-15T09:35:39;10.18;;;4.60;;
85175;SDS011;75548;42.444;27.488;2024-02-15T09:39:04;7.60;;;4.22;;
85175;SDS011;75548;42.444;27.488;2024-02-15T09:42:30;8.13;;;5.15;;
85175;SDS011;75548;42.444;27.488;2024-02-15T09:45:55;6.38;;;3.78;;
85175;SDS011;75548;42.444;27.488;2024-02-15T09:49:20;7.85;;;4.63;;
85175;SDS011;75548;42.444;27.488;2024-02-15T09:52:49;6.25;;;3.85;;
85175;SDS011;75548;42.444;27.488;2024-02-15T09:56:11;5.78;;;4.55;;
85175;SDS011;75548;42.444;27.488;2024-02-15T09:59:39;7.97;;;5.00;;
85175;SDS011;75548;42.444;27.488;2024-02-15T10:03:05;6.15;;;4.20;;
85175;SDS011;75548;42.444;27.488;2024-02-15T10:06:30;8.10;;;4.43;;
85175;SDS011;75548;42.444;27.488;2024-02-15T10:09:56;7.10;;;4.47;;
85175;SDS011;75548;42.444;27.488;2024-02-15T10:13:22;8.10;;;4.82;;
85175;SDS011;75548;42.444;27.488;2024-02-15T10:15:49;5.88;;;3.65;;
85175;SDS011;75548;42.444;27.488;2024-02-15T10:18:16;6.43;;;4.43;;
85175;SDS011;75548;42.444;27.488;2024-02-15T10:21:41;9.15;;;4.60;;
85175;SDS011;75548;42.444;27.488;2024-02-15T10:25:13;5.80;;;3.85;;
85175;SDS011;75548;42.444;27.488;2024-02-15T10:28:38;6.43;;;4.55;;
85175;SDS011;75548;42.444;27.488;2024-02-15T10:32:09;6.80;;;4.30;;
85175;SDS011;75548;42.444;27.488;2024-02-15T10:35:41;7.22;;;4.32;;
85175;SDS011;75548;42.444;27.488;2024-02-15T10:39:13;7.22;;;4.57;;
85175;SDS011;75548;42.444;27.488;2024-02-15T10:42:38;7.40;;;4.45;;
85175;SDS011;75548;42.444;27.488;2024-02-15T10:46:03;8.45;;;4.82;;
85175;SDS011;75548;42.444;27.488;2024-02-15T10:49:29;8.63;;;5.28;;
85175;SDS011;75548;42.444;27.488;2024-02-15T10:52:55;6.20;;;4.32;;
85175;SDS011;75548;42.444;27.488;2024-02-15T10:58:50;8.35;;;4.80;;
85175;SDS011;75548;42.444;27.488;2024-02-15T11:01:57;8.40;;;4.80;;
85175;SDS011;75548;42.444;27.488;2024-02-15T11:05:08;8.10;;;5.57;;
85175;SDS011;75548;42.444;27.488;2024-02-15T11:08:33;11.23;;;5.90;;
85175;SDS011;75548;42.444;27.488;2024-02-15T11:11:58;7.03;;;4.55;;
85175;SDS011;75548;42.444;27.488;2024-02-15T11:21:54;10.73;;;5.50;;
85175;SDS011;75548;42.444;27.488;2024-02-15T11:25:19;9.82;;;5.68;;
85175;SDS011;75548;42.444;27.488;2024-02-15T11:28:45;8.48;;;5.85;;
85175;SDS011;75548;42.444;27.488;2024-02-15T11:32:10;14.30;;;6.28;;
85175;SDS011;75548;42.444;27.488;2024-02-15T11:35:25;9.32;;;6.10;;
85175;SDS011;75548;42.444;27.488;2024-02-15T11:38:50;10.05;;;6.47;;
85175;SDS011;75548;42.444;27.488;2024-02-15T11:42:47;9.32;;;5.90;;
85175;SDS011;75548;42.444;27.488;2024-02-15T11:45:45;9.30;;;5.72;;
85175;SDS011;75548;42.444;27.488;2024-02-15T11:49:14;7.07;;;5.03;;
85175;SDS011;75548;42.444;27.488;2024-02-15T11:52:36;8.77;;;6.15;;
85175;SDS011;75548;42.444;27.488;2024-02-15T11:56:02;11.27;;;5.45;;
85175;SDS011;75548;42.444;27.488;2024-02-15T11:59:27;8.73;;;5.90;;
85175;SDS011;75548;42.444;27.488;2024-02-15T12:03:00;8.27;;;5.07;;
85175;SDS011;75548;42.444;27.488;2024-02-15T12:06:22;10.32;;;6.47;;
85175;SDS011;75548;42.444;27.488;2024-02-15T12:09:46;16.40;;;8.98;;
85175;SDS011;75548;42.444;27.488;2024-02-15T12:13:10;11.15;;;7.53;;
85175;SDS011;75548;42.444;27.488;2024-02-15T12:16:35;12.18;;;7.03;;
85175;SDS011;75548;42.444;27.488;2024-02-15T12:19:44;9.55;;;6.90;;
85175;SDS011;75548;42.444;27.488;2024-02-15T12:23:10;11.85;;;7.15;;
85175;SDS011;75548;42.444;27.488;2024-02-15T12:26:35;12.10;;;7.13;;
85175;SDS011;75548;42.444;27.488;2024-02-15T12:30:06;9.75;;;6.35;;
85175;SDS011;75548;42.444;27.488;2024-02-15T12:33:32;8.80;;;5.80;;
85175;SDS011;75548;42.444;27.488;2024-02-15T12:37:06;12.80;;;7.55;;
85175;SDS011;75548;42.444;27.488;2024-02-15T12:40:32;11.45;;;7.93;;
85175;SDS011;75548;42.444;27.488;2024-02-15T12:43:57;9.75;;;6.22;;
85175;SDS011;75548;42.444;27.488;2024-02-15T12:47:22;11.18;;;8.25;;
85175;SDS011;75548;42.444;27.488;2024-02-15T12:50:48;11.00;;;6.80;;
85175;SDS011;75548;42.444;27.488;2024-02-15T12:54:16;11.25;;;6.85;;
85175;SDS011;75548;42.444;27.488;2024-02-15T12:57:42;11.27;;;8.35;;
85175;SDS011;75548;42.444;27.488;2024-02-15T13:01:07;13.18;;;8.40;;
85175;SDS011;75548;42.444;27.488;2024-02-15T13:04:32;16.98;;;9.65;;
85175;SDS011;75548;42.444;27.488;2024-02-15T13:07:58;8.27;;;5.70;;
85175;SDS011;75548;42.444;27.488;2024-02-15T13:11:23;9.23;;;6.03;;
85175;SDS011;75548;42.444;27.488;2024-02-15T13:14:48;15.57;;;8.80;;
85175;SDS011;75548;42.444;27.488;2024-02-15T13:18:14;12.80;;;7.75;;
85175;SDS011;75548;42.444;27.488;2024-02-15T13:21:39;11.35;;;7.13;;
85175;SDS011;75548;42.444;27.488;2024-02-15T13:25:05;10.57;;;6.35;;
85175;SDS011;75548;42.444;27.488;2024-02-15T13:28:30;21.25;;;7.43;;
85175;SDS011;75548;42.444;27.488;2024-02-15T13:31:56;8.63;;;5.97;;
85175;SDS011;75548;42.444;27.488;2024-02-15T13:35:21;13.15;;;7.95;;
85175;SDS011;75548;42.444;27.488;2024-02-15T13:38:46;13.40;;;9.30;;
85175;SDS011;75548;42.444;27.488;2024-02-15T13:42:12;14.05;;;9.20;;
85175;SDS011;75548;42.444;27.488;2024-02-15T13:45:40;11.65;;;7.85;;
85175;SDS011;75548;42.444;27.488;2024-02-15T13:49:05;11.60;;;7.65;;
85175;SDS011;75548;42.444;27.488;2024-02-15T13:52:31;13.50;;;7.65;;
85175;SDS011;75548;42.444;27.488;2024-02-15T13:55:56;15.93;;;9.43;;
85175;SDS011;75548;42.444;27.488;2024-02-15T13:59:22;9.85;;;6.90;;
85175;SDS011;75548;42.444;27.488;2024-02-15T14:02:48;9.70;;;7.07;;
85175;SDS011;75548;42.444;27.488;2024-02-15T14:06:12;22.00;;;12.20;;
85175;SDS011;75548;42.444;27.488;2024-02-15T14:09:38;10.93;;;6.60;;
85175;SDS011;75548;42.444;27.488;2024-02-15T14:13:04;16.15;;;9.50;;
85175;SDS011;75548;42.444;27.488;2024-02-15T14:16:29;8.43;;;6.35;;
85175;SDS011;75548;42.444;27.488;2024-02-15T14:19:54;14.30;;;9.50;;
85175;SDS011;75548;42.444;27.488;2024-02-15T14:23:19;12.65;;;8.60;;
85175;SDS011;75548;42.444;27.488;2024-02-15T14:26:45;11.50;;;7.55;;
85175;SDS011;75548;42.444;27.488;2024-02-15T14:30:10;14.80;;;8.73;;
85175;SDS011;75548;42.444;27.488;2024-02-15T14:33:34;13.10;;;8.30;;
85175;SDS011;75548;42.444;27.488;2024-02-15T14:36:59;12.32;;;8.52;;
85175;SDS011;75548;42.444;27.488;2024-02-15T14:40:25;9.77;;;7.63;;
85175;SDS011;75548;42.444;27.488;2024-02-15T14:43:50;16.50;;;9.73;;
85175;SDS011;75548;42.444;27.488;2024-02-15T14:47:16;10.15;;;7.10;;
85175;SDS011;75548;42.444;27.488;2024-02-15T14:50:41;11.13;;;7.82;;
85175;SDS011;75548;42.444;27.488;2024-02-15T14:54:06;11.00;;;5.95;;
85175;SDS011;75548;42.444;27.488;2024-02-15T14:57:32;9.90;;;6.05;;
85175;SDS011;75548;42.444;27.488;2024-02-15T15:00:57;15.32;;;6.75;;
85175;SDS011;75548;42.444;27.488;2024-02-15T15:04:23;11.73;;;8.40;;
85175;SDS011;75548;42.444;27.488;2024-02-15T15:07:46;11.43;;;7.78;;
85175;SDS011;75548;42.444;27.488;2024-02-15T15:11:10;9.77;;;6.07;;
85175;SDS011;75548;42.444;27.488;2024-02-15T15:14:35;12.93;;;7.18;;
85175;SDS011;75548;42.444;27.488;2024-02-15T15:18:00;10.02;;;7.13;;
85175;SDS011;75548;42.444;27.488;2024-02-15T15:21:26;11.95;;;8.27;;
85175;SDS011;75548;42.444;27.488;2024-02-15T15:24:51;9.52;;;6.00;;
85175;SDS011;75548;42.444;27.488;2024-02-15T15:28:16;14.73;;;8.57;;
85175;SDS011;75548;42.444;27.488;2024-02-15T15:31:42;15.82;;;10.07;;
85175;SDS011;75548;42.444;27.488;2024-02-15T15:35:07;17.17;;;11.35;;
85175;SDS011;75548;42.444;27.488;2024-02-15T15:37:55;13.35;;;10.30;;
85175;SDS011;75548;42.444;27.488;2024-02-15T15:41:20;19.70;;;12.63;;
85175;SDS011;75548;42.444;27.488;2024-02-15T15:44:45;21.73;;;11.38;;
85175;SDS011;75548;42.444;27.488;2024-02-15T15:48:11;21.02;;;11.35;;
85175;SDS011;75548;42.444;27.488;2024-02-15T15:51:40;12.40;;;7.47;;
85175;SDS011;75548;42.444;27.488;2024-02-15T15:55:01;11.93;;;6.72;;
85175;SDS011;75548;42.444;27.488;2024-02-15T15:58:27;13.05;;;7.55;;
85175;SDS011;75548;42.444;27.488;2024-02-15T16:01:52;12.73;;;7.40;;
85175;SDS011;75548;42.444;27.488;2024-02-15T16:05:18;11.23;;;7.53;;
85175;SDS011;75548;42.444;27.488;2024-02-15T16:08:43;12.95;;;8.55;;
85175;SDS011;75548;42.444;27.488;2024-02-15T16:12:08;18.02;;;9.30;;
85175;SDS011;75548;42.444;27.488;2024-02-15T16:15:34;13.32;;;10.23;;
85175;SDS011;75548;42.444;27.488;2024-02-15T16:18:59;16.08;;;9.43;;
85175;SDS011;75548;42.444;27.488;2024-02-15T16:22:25;18.25;;;12.20;;
85175;SDS011;75548;42.444;27.488;2024-02-15T16:25:50;17.58;;;11.00;;
85175;SDS011;75548;42.444;27.488;2024-02-15T16:29:16;19.30;;;8.73;;
85175;SDS011;75548;42.444;27.488;2024-02-15T16:32:41;22.77;;;11.50;;
85175;SDS011;75548;42.444;27.488;2024-02-15T16:36:06;35.35;;;19.92;;
85175;SDS011;75548;42.444;27.488;2024-02-15T16:39:32;10.45;;;6.45;;
85175;SDS011;75548;42.444;27.488;2024-02-15T16:42:57;12.60;;;10.18;;
85175;SDS011;75548;42.444;27.488;2024-02-15T16:46:23;9.98;;;7.50;;
85175;SDS011;75548;42.444;27.488;2024-02-15T16:49:29;15.80;;;9.27;;
85175;SDS011;75548;42.444;27.488;2024-02-15T16:52:54;13.40;;;10.05;;
85175;SDS011;75548;42.444;27.488;2024-02-15T16:56:20;11.25;;;7.93;;
85175;SDS011;75548;42.444;27.488;2024-02-15T16:59:45;17.70;;;12.20;;
85175;SDS011;75548;42.444;27.488;2024-02-15T17:03:11;24.23;;;14.82;;
85175;SDS011;75548;42.444;27.488;2024-02-15T17:06:36;14.68;;;9.80;;
85175;SDS011;75548;42.444;27.488;2024-02-15T17:10:02;15.35;;;9.80;;
85175;SDS011;75548;42.444;27.488;2024-02-15T17:13:27;12.18;;;7.95;;
85175;SDS011;75548;42.444;27.488;2024-02-15T17:16:52;31.30;;;14.48;;
85175;SDS011;75548;42.444;27.488;2024-02-15T17:20:18;24.38;;;18.52;;
85175;SDS011;75548;42.444;27.488;2024-02-15T17:23:43;12.82;;;7.85;;
85175;SDS011;75548;42.444;27.488;2024-02-15T17:27:09;15.40;;;8.45;;
85175;SDS011;75548;42.444;27.488;2024-02-15T17:30:34;9.63;;;7.88;;
85175;SDS011;75548;42.444;27.488;2024-02-15T17:33:59;12.02;;;8.23;;
85175;SDS011;75548;42.444;27.488;2024-02-15T17:37:25;15.23;;;8.75;;
85175;SDS011;75548;42.444;27.488;2024-02-15T17:40:50;16.75;;;12.70;;
85175;SDS011;75548;42.444;27.488;2024-02-15T17:44:16;27.27;;;13.65;;
85175;SDS011;75548;42.444;27.488;2024-02-15T17:47:41;15.30;;;8.20;;
85175;SDS011;75548;42.444;27.488;2024-02-15T17:51:06;12.32;;;8.35;;
85175;SDS011;75548;42.444;27.488;2024-02-15T17:54:32;12.57;;;9.23;;
85175;SDS011;75548;42.444;27.488;2024-02-15T17:57:02;13.05;;;8.98;;
85175;SDS011;75548;42.444;27.488;2024-02-15T18:00:27;9.80;;;7.05;;
85175;SDS011;75548;42.444;27.488;2024-02-15T18:03:53;9.50;;;6.97;;
85175;SDS011;75548;42.444;27.488;2024-02-15T18:07:18;10.93;;;7.63;;
85175;SDS011;75548;42.444;27.488;2024-02-15T18:10:44;11.45;;;7.07;;
85175;SDS011;75548;42.444;27.488;2024-02-15T18:14:09;9.30;;;6.90;;
85175;SDS011;75548;42.444;27.488;2024-02-15T18:17:35;9.85;;;7.15;;
85175;SDS011;75548;42.444;27.488;2024-02-15T18:21:00;9.63;;;6.55;;
85175;SDS011;75548;42.444;27.488;2024-02-15T18:24:25;10.82;;;6.70;;
85175;SDS011;75548;42.444;27.488;2024-02-15T18:27:51;10.00;;;6.65;;
85175;SDS011;75548;42.444;27.488;2024-02-15T18:31:16;8.77;;;5.82;;
85175;SDS011;75548;42.444;27.488;2024-02-15T18:34:42;10.48;;;6.88;;
85175;SDS011;75548;42.444;27.488;2024-02-15T18:38:07;6.70;;;4.82;;
85175;SDS011;75548;42.444;27.488;2024-02-15T18:41:32;9.68;;;5.75;;
85175;SDS011;75548;42.444;27.488;2024-02-15T18:44:58;7.95;;;5.75;;
85175;SDS011;75548;42.444;27.488;2024-02-15T18:48:23;11.20;;;6.53;;
85175;SDS011;75548;42.444;27.488;2024-02-15T18:51:48;9.05;;;5.95;;
85175;SDS011;75548;42.444;27.488;2024-02-15T18:55:14;11.30;;;6.10;;
85175;SDS011;75548;42.444;27.488;2024-02-15T18:58:39;10.75;;;6.30;;
85175;SDS011;75548;42.444;27.488;2024-02-15T19:02:05;13.48;;;5.78;;
85175;SDS011;75548;42.444;27.488;2024-02-15T19:05:30;9.90;;;5.82;;
85175;SDS011;75548;42.444;27.488;2024-02-15T19:08:56;11.32;;;6.13;;
85175;SDS011;75548;42.444;27.488;2024-02-15T19:12:21;10.15;;;6.63;;
85175;SDS011;75548;42.444;27.488;2024-02-15T19:15:46;9.77;;;5.95;;
85175;SDS011;75548;42.444;27.488;2024-02-15T19:19:12;11.05;;;6.25;;
85175;SDS011;75548;42.444;27.488;2024-02-15T19:22:37;10.93;;;6.25;;
85175;SDS011;75548;42.444;27.488;2024-02-15T19:26:02;9.85;;;6.53;;
85175;SDS011;75548;42.444;27.488;2024-02-15T19:29:28;11.05;;;5.75;;
85175;SDS011;75548;42.444;27.488;2024-02-15T19:32:53;9.63;;;5.85;;
85175;SDS011;75548;42.444;27.488;2024-02-15T19:36:19;7.80;;;5.65;;
85175;SDS011;75548;42.444;27.488;2024-02-15T19:39:44;14.38;;;8.75;;
85175;SDS011;75548;42.444;27.488;2024-02-15T19:43:10;13.85;;;5.80;;
85175;SDS011;75548;42.444;27.488;2024-02-15T19:46:35;13.73;;;6.57;;
85175;SDS011;75548;42.444;27.488;2024-02-15T19:50:01;8.55;;;5.28;;
85175;SDS011;75548;42.444;27.488;2024-02-15T19:53:26;7.00;;;4.82;;
85175;SDS011;75548;42.444;27.488;2024-02-15T19:56:51;8.50;;;5.30;;
85175;SDS011;75548;42.444;27.488;2024-02-15T20:00:17;8.60;;;4.93;;
85175;SDS011;75548;42.444;27.488;2024-02-15T20:03:42;9.75;;;5.68;;
85175;SDS011;75548;42.444;27.488;2024-02-15T20:07:08;11.73;;;6.28;;